Terminal Aerodrome Forecast
Issued by NWS Cleveland, OH

Home | Current Version | Previous Version | Text Only | Print | Product List | Glossary Off
Versions: 1 2 3 4 5 6 7 8 9 10 11 12 13 14 15 16 17 18

000
FTUS41 KCLE 040940 AAA
TAFMFD
TAF AMD
KMFD 040940Z 0410/0506 33003KT P6SM SCT003
      TEMPO 0410/0413 4SM BR BKN003
     FM041500 33006KT P6SM FEW045
     FM050100 VRB02KT P6SM SKC=

USA.gov is the U.S. government's official web portal to all federal, state and local government web resources and services.